Time;durP1;ratioP1;P1;durP2;ratioP2;P2;SDS_P1;SDS_P2;PMS_P1;PMS_P2;Temp;Humidity;BMP_temperature;BMP_pressure;BME280_temperature;BME280_humidity;BME280_pressure;Samples;Min_cycle;Max_cycle;Signal;HPM_P1;HPM_P2
2022/07/30 00:02:10;;;;;;;5.70;2.92;;;21.00;90.20;;;;;;5030745;27;45393;-67
2022/07/30 00:04:37;;;;;;;7.68;3.15;;;21.00;90.20;;;;;;5040160;28;45253;-67
2022/07/30 00:07:03;;;;;;;4.88;3.13;;;21.00;90.00;;;;;;5035219;27;48382;-67
2022/07/30 00:09:30;;;;;;;8.82;3.08;;;20.90;90.10;;;;;;5037667;27;45399;-67
2022/07/30 00:11:57;;;;;;;6.05;3.55;;;20.90;90.00;;;;;;5035681;28;45311;-67
2022/07/30 00:14:25;;;;;;;8.93;3.42;;;20.90;90.10;;;;;;5035457;28;45551;-67
2022/07/30 00:16:53;;;;;;;5.35;2.83;;;20.90;90.00;;;;;;5037941;28;46370;-68
2022/07/30 00:19:20;;;;;;;4.00;3.08;;;20.80;90.10;;;;;;5035601;28;45534;-67
2022/07/30 00:21:47;;;;;;;8.43;3.28;;;20.70;90.30;;;;;;5035856;28;45295;-67
2022/07/30 00:24:14;;;;;;;5.72;3.10;;;20.80;90.40;;;;;;5034510;28;45382;-67
2022/07/30 00:26:41;;;;;;;7.22;3.25;;;20.80;90.30;;;;;;5036758;28;47802;-68
2022/07/30 00:29:07;;;;;;;8.27;3.42;;;20.80;90.40;;;;;;5036092;28;45383;-67
2022/07/30 00:31:34;;;;;;;6.70;3.17;;;20.70;90.50;;;;;;5030434;27;45315;-67
2022/07/30 00:34:03;;;;;;;6.38;2.88;;;20.80;90.50;;;;;;5036534;28;45435;-68
2022/07/30 00:36:30;;;;;;;9.05;3.28;;;20.80;90.30;;;;;;5037186;28;45337;-67
2022/07/30 00:38:57;;;;;;;5.93;3.35;;;20.80;90.50;;;;;;5034852;28;45432;-68
2022/07/30 00:41:24;;;;;;;6.55;3.08;;;20.80;90.20;;;;;;5032910;28;45234;-67
2022/07/30 00:43:51;;;;;;;4.78;3.10;;;20.80;90.20;;;;;;5037298;28;45419;-67
2022/07/30 00:46:18;;;;;;;8.60;3.22;;;20.80;90.30;;;;;;5036026;28;46615;-67
2022/07/30 00:48:45;;;;;;;5.45;3.03;;;20.70;90.50;;;;;;5037547;28;45457;-67
2022/07/30 00:51:13;;;;;;;7.45;3.45;;;20.60;90.80;;;;;;5032589;27;45356;-67
2022/07/30 00:53:40;;;;;;;5.80;3.55;;;20.60;90.80;;;;;;5036206;27;45695;-67
2022/07/30 00:56:07;;;;;;;6.40;3.50;;;20.50;91.00;;;;;;5024924;28;47518;-67
2022/07/30 00:58:34;;;;;;;7.03;3.80;;;20.50;91.20;;;;;;5038619;28;45350;-67
2022/07/30 01:01:01;;;;;;;7.97;3.90;;;20.40;91.40;;;;;;5028141;28;45360;-67
2022/07/30 01:03:28;;;;;;;8.65;3.75;;;20.30;91.90;;;;;;5030584;28;45299;-67
2022/07/30 01:05:54;;;;;;;7.95;3.65;;;20.30;91.40;;;;;;5036401;28;46389;-67
2022/07/30 01:08:22;;;;;;;6.93;3.92;;;20.20;92.00;;;;;;5022333;28;45373;-68
2022/07/30 01:10:49;;;;;;;18.45;4.10;;;20.10;91.60;;;;;;5038604;28;45274;-68
2022/07/30 01:13:16;;;;;;;7.43;3.63;;;20.10;91.60;;;;;;5035398;28;45473;-67
2022/07/30 01:15:44;;;;;;;4.55;3.50;;;20.10;91.80;;;;;;5035830;28;46107;-67
2022/07/30 01:18:12;;;;;;;5.18;3.63;;;20.10;92.00;;;;;;5033099;28;45610;-67
2022/07/30 01:20:44;;;;;;;6.30;3.80;;;20.10;92.00;;;;;;5036218;28;45373;-67
2022/07/30 01:23:19;;;;;;;5.00;3.45;;;20.10;92.10;;;;;;5035801;27;45369;-67
2022/07/30 01:25:54;;;;;;;8.82;3.90;;;20.10;92.20;;;;;;5036437;28;45334;-67
2022/07/30 01:28:25;;;;;;;6.75;3.80;;;20.20;92.10;;;;;;5034596;27;45272;-67
2022/07/30 01:30:53;;;;;;;6.10;3.90;;;20.20;92.00;;;;;;5036879;28;45474;-67
2022/07/30 01:33:22;;;;;;;7.55;3.55;;;20.10;91.80;;;;;;5035108;28;45330;-67
2022/07/30 01:35:52;;;;;;;7.05;3.67;;;20.10;92.00;;;;;;5036261;28;46376;-67
2022/07/30 01:38:22;;;;;;;5.88;3.50;;;20.10;92.20;;;;;;5028100;28;45366;-67
2022/07/30 01:40:51;;;;;;;6.28;3.45;;;20.10;91.90;;;;;;5021792;28;45333;-67
2022/07/30 01:43:20;;;;;;;4.65;3.17;;;20.00;91.40;;;;;;5034319;28;45554;-68
2022/07/30 01:45:48;;;;;;;7.78;3.53;;;19.90;92.20;;;;;;5036800;28;46316;-67
2022/07/30 01:48:19;;;;;;;8.18;3.75;;;20.00;92.10;;;;;;5038479;28;45222;-67
2022/07/30 01:50:50;;;;;;;6.47;3.38;;;19.90;91.70;;;;;;5037921;27;45473;-68
2022/07/30 01:53:18;;;;;;;6.30;3.55;;;19.90;92.00;;;;;;5038371;27;45346;-68
2022/07/30 01:55:47;;;;;;;9.73;3.92;;;19.90;91.90;;;;;;5033460;27;45507;-67
2022/07/30 01:58:19;;;;;;;5.28;3.58;;;19.90;92.20;;;;;;5037493;27;45274;-67
2022/07/30 02:00:48;;;;;;;8.98;3.65;;;19.90;92.10;;;;;;5036501;27;45322;-66
2022/07/30 02:03:15;;;;;;;5.00;3.17;;;19.90;92.20;;;;;;5036880;28;45312;-67
2022/07/30 02:05:47;;;;;;;8.52;3.67;;;19.90;92.30;;;;;;5039073;28;45471;-67
2022/07/30 02:08:18;;;;;;;6.88;3.22;;;19.90;92.30;;;;;;5037106;28;45275;-67
2022/07/30 02:10:49;;;;;;;6.93;3.28;;;20.00;92.00;;;;;;5038597;27;45311;-68
2022/07/30 02:13:22;;;;;;;4.95;3.10;;;20.10;92.30;;;;;;5038248;28;45318;-67
2022/07/30 02:15:54;;;;;;;6.70;3.58;;;20.20;91.80;;;;;;5039413;28;48073;-68
2022/07/30 02:18:27;;;;;;;8.00;3.20;;;20.30;91.70;;;;;;5038384;28;45777;-67
2022/07/30 02:21:00;;;;;;;8.45;3.42;;;20.30;91.40;;;;;;5039583;28;45306;-67
2022/07/30 02:23:30;;;;;;;6.38;3.00;;;20.30;91.60;;;;;;5038877;28;45353;-67
2022/07/30 02:25:59;;;;;;;5.60;3.40;;;20.30;91.40;;;;;;5038726;28;46283;-67
2022/07/30 02:28:30;;;;;;;5.95;2.95;;;20.20;91.60;;;;;;5037425;27;45402;-67
2022/07/30 02:31:00;;;;;;;6.30;3.30;;;20.20;91.60;;;;;;5039332;28;45298;-67
2022/07/30 02:33:29;;;;;;;6.85;3.80;;;20.20;91.40;;;;;;5038346;28;45475;-68
2022/07/30 02:35:57;;;;;;;6.43;3.08;;;20.10;91.20;;;;;;5035645;28;45380;-67
2022/07/30 02:38:26;;;;;;;6.15;3.47;;;20.10;91.30;;;;;;5037934;28;45325;-67
2022/07/30 02:40:55;;;;;;;7.78;3.65;;;20.10;91.30;;;;;;5041373;28;45609;-68
2022/07/30 02:43:24;;;;;;;5.75;3.40;;;20.00;91.30;;;;;;5039446;27;45322;-67
2022/07/30 02:45:53;;;;;;;5.57;3.67;;;20.00;91.80;;;;;;5038432;27;48249;-67
2022/07/30 02:48:22;;;;;;;5.38;3.30;;;19.90;91.90;;;;;;5037545;27;45381;-67
2022/07/30 02:50:51;;;;;;;7.82;3.40;;;19.90;92.10;;;;;;5039420;27;45368;-67
2022/07/30 02:53:19;;;;;;;6.30;3.40;;;19.90;91.90;;;;;;5036903;28;45554;-67
2022/07/30 02:55:47;;;;;;;7.65;3.15;;;19.90;92.00;;;;;;5038502;28;46100;-67
2022/07/30 02:58:19;;;;;;;6.78;3.50;;;20.00;91.70;;;;;;5036648;28;45558;-67
2022/07/30 03:00:48;;;;;;;7.32;3.50;;;20.00;91.60;;;;;;5038370;27;45321;-67
2022/07/30 03:03:17;;;;;;;7.28;3.42;;;20.00;91.60;;;;;;5035237;28;45417;-67
2022/07/30 03:05:44;;;;;;;9.02;3.88;;;20.00;91.90;;;;;;5037258;27;46314;-67
2022/07/30 03:08:12;;;;;;;6.47;3.45;;;20.00;91.90;;;;;;5037041;28;45596;-67
2022/07/30 03:10:40;;;;;;;5.40;3.33;;;20.00;91.90;;;;;;5038805;28;45600;-67
2022/07/30 03:13:09;;;;;;;5.80;3.38;;;20.10;91.80;;;;;;5037129;28;45377;-68
2022/07/30 03:15:42;;;;;;;7.60;3.78;;;20.10;91.70;;;;;;5038036;28;46562;-67
2022/07/30 03:18:12;;;;;;;4.20;3.47;;;20.10;91.80;;;;;;5038203;28;45399;-67
2022/07/30 03:20:44;;;;;;;7.18;3.83;;;20.10;91.60;;;;;;5032242;28;45276;-68
2022/07/30 03:23:13;;;;;;;6.70;3.25;;;20.10;91.80;;;;;;5035558;28;45378;-67
2022/07/30 03:25:41;;;;;;;13.52;3.30;;;20.10;91.40;;;;;;5036509;28;45424;-67
2022/07/30 03:28:08;;;;;;;7.82;4.40;;;20.10;91.70;;;;;;5036088;28;46038;-67
2022/07/30 03:30:35;;;;;;;8.80;4.10;;;20.10;91.70;;;;;;5038122;28;45289;-67
2022/07/30 03:33:03;;;;;;;9.68;3.60;;;20.00;91.60;;;;;;5036475;28;45475;-67
2022/07/30 03:35:30;;;;;;;9.73;4.13;;;19.90;91.90;;;;;;5039992;28;48588;-67
2022/07/30 03:37:59;;;;;;;4.80;3.70;;;20.00;91.90;;;;;;5037800;28;45390;-67
2022/07/30 03:40:27;;;;;;;7.30;3.85;;;20.00;92.00;;;;;;5037388;28;45450;-67
2022/07/30 03:42:54;;;;;;;6.53;3.83;;;20.00;92.00;;;;;;5035395;28;45474;-67
2022/07/30 03:45:22;;;;;;;11.60;4.30;;;20.10;92.70;;;;;;5037098;28;47626;-68
2022/07/30 03:47:49;;;;;;;9.73;4.00;;;20.00;92.00;;;;;;5037723;28;45442;-67
2022/07/30 03:50:16;;;;;;;11.15;4.20;;;20.00;92.30;;;;;;5037429;27;45517;-67
2022/07/30 03:52:43;;;;;;;8.15;4.43;;;20.00;92.30;;;;;;5037428;27;45325;-67
2022/07/30 03:55:12;;;;;;;6.20;4.18;;;20.00;92.30;;;;;;5036903;28;46586;-67
2022/07/30 03:57:39;;;;;;;10.00;4.43;;;20.00;92.50;;;;;;5036980;27;45544;-67
2022/07/30 04:00:07;;;;;;;10.40;4.40;;;19.90;92.30;;;;;;5037423;28;45295;-66
2022/07/30 04:02:41;;;;;;;7.05;4.38;;;19.90;92.50;;;;;;5025852;28;45556;-67
2022/07/30 04:05:08;;;;;;;8.90;5.10;;;19.70;92.80;;;;;;5019926;28;45438;-67
2022/07/30 04:07:35;;;;;;;8.77;4.13;;;19.70;92.90;;;;;;5033405;28;45255;-66
2022/07/30 04:10:02;;;;;;;10.63;4.78;;;19.70;93.20;;;;;;5038578;28;45290;-67
2022/07/30 04:12:30;;;;;;;9.88;4.70;;;19.70;93.90;;;;;;5039086;28;45294;-67
2022/07/30 04:14:57;;;;;;;8.68;4.53;;;19.70;94.00;;;;;;5039383;28;47637;-67
2022/07/30 04:17:27;;;;;;;10.45;5.55;;;19.70;94.00;;;;;;5037162;27;45275;-67
2022/07/30 04:19:59;;;;;;;9.13;4.43;;;19.70;94.00;;;;;;5037768;28;45433;-67
2022/07/30 04:22:31;;;;;;;10.63;5.43;;;19.60;94.00;;;;;;5037083;28;45467;-67
2022/07/30 04:25:00;;;;;;;9.35;4.57;;;19.60;94.00;;;;;;5037776;28;45307;-67
2022/07/30 04:27:27;;;;;;;9.70;5.35;;;19.50;94.40;;;;;;5036346;28;45722;-67
2022/07/30 04:29:56;;;;;;;9.70;5.25;;;19.40;94.70;;;;;;5038331;28;45340;-67
2022/07/30 04:32:23;;;;;;;7.20;4.57;;;19.30;95.00;;;;;;5036133;28;45243;-67
2022/07/30 04:34:52;;;;;;;9.82;5.32;;;19.40;95.20;;;;;;5037800;28;46555;-67
2022/07/30 04:37:22;;;;;;;16.42;5.07;;;19.40;95.50;;;;;;5036541;28;45437;-67
2022/07/30 04:39:52;;;;;;;10.45;5.05;;;19.30;95.40;;;;;;5036428;28;45372;-67
2022/07/30 04:42:20;;;;;;;8.93;5.18;;;19.30;95.80;;;;;;5036452;28;45466;-67
2022/07/30 04:44:47;;;;;;;12.10;5.40;;;19.30;95.80;;;;;;5037097;28;46275;-67
2022/07/30 04:47:15;;;;;;;15.48;7.30;;;19.20;96.20;;;;;;5035480;28;45422;-67
2022/07/30 04:49:43;;;;;;;10.32;5.63;;;19.20;97.30;;;;;;5037786;28;45353;-67
2022/07/30 04:52:11;;;;;;;16.25;6.15;;;19.30;97.60;;;;;;5035679;28;45450;-67
2022/07/30 04:54:42;;;;;;;12.02;6.35;;;19.40;97.20;;;;;;5036404;27;46613;-67
2022/07/30 04:57:10;;;;;;;16.23;7.65;;;19.40;97.50;;;;;;5034530;28;45358;-67
2022/07/30 04:59:38;;;;;;;14.95;7.53;;;19.40;98.00;;;;;;5036533;28;45554;-67
2022/07/30 05:02:07;;;;;;;21.63;8.82;;;19.40;98.40;;;;;;5035110;28;45590;-67
2022/07/30 05:04:37;;;;;;;18.30;8.60;;;19.40;98.80;;;;;;5021724;28;46098;-66
2022/07/30 05:07:05;;;;;;;17.10;7.90;;;19.40;99.70;;;;;;5035365;27;45295;-67
2022/07/30 05:09:32;;;;;;;17.17;8.40;;;19.40;99.90;;;;;;5030139;28;45295;-67
2022/07/30 05:11:59;;;;;;;19.15;9.07;;;19.40;99.90;;;;;;5036925;28;45432;-67
2022/07/30 05:14:27;;;;;;;23.38;8.90;;;19.30;99.90;;;;;;5035419;27;45336;-67
2022/07/30 05:16:54;;;;;;;28.38;9.13;;;19.10;99.90;;;;;;5038117;28;45450;-67
2022/07/30 05:19:22;;;;;;;18.42;8.57;;;19.30;99.90;;;;;;5035589;28;45366;-67
2022/07/30 05:21:50;;;;;;;21.45;9.52;;;19.40;99.90;;;;;;5040548;28;45346;-67
2022/07/30 05:24:17;;;;;;;19.55;9.07;;;19.30;99.90;;;;;;5036821;28;48691;-67
2022/07/30 05:26:44;;;;;;;22.52;9.20;;;19.20;99.90;;;;;;5039478;28;45266;-67
2022/07/30 05:29:12;;;;;;;20.55;9.95;;;19.10;99.90;;;;;;5038247;28;45442;-68
2022/07/30 05:31:38;;;;;;;20.40;9.32;;;19.10;99.90;;;;;;5039024;28;45403;-67
2022/07/30 05:34:05;;;;;;;19.30;9.35;;;19.10;99.90;;;;;;5037796;28;48359;-67
2022/07/30 05:36:32;;;;;;;18.08;9.85;;;19.30;99.90;;;;;;5038545;28;45489;-68
2022/07/30 05:39:00;;;;;;;16.73;9.20;;;19.20;99.90;;;;;;5024705;28;45413;-66
2022/07/30 05:41:27;;;;;;;19.77;9.55;;;19.20;99.90;;;;;;5025082;28;45395;-67
2022/07/30 05:43:54;;;;;;;17.50;9.25;;;19.10;99.90;;;;;;5034842;28;45469;-67
2022/07/30 05:46:21;;;;;;;19.63;9.85;;;19.10;99.90;;;;;;5037956;28;45472;-67
2022/07/30 05:48:48;;;;;;;22.73;10.07;;;19.20;99.90;;;;;;5039945;28;45297;-67
2022/07/30 05:51:15;;;;;;;21.10;10.30;;;19.10;99.90;;;;;;5038728;28;45481;-66
2022/07/30 05:53:42;;;;;;;22.35;11.02;;;19.10;99.90;;;;;;5037295;27;47491;-67
2022/07/30 05:56:10;;;;;;;18.77;9.75;;;19.10;99.90;;;;;;5038659;28;45374;-67
2022/07/30 05:58:37;;;;;;;19.88;9.82;;;19.10;99.90;;;;;;5036701;28;45701;-67
2022/07/30 06:01:04;;;;;;;18.48;9.90;;;19.20;99.90;;;;;;5035385;27;45415;-68
2022/07/30 06:03:31;;;;;;;18.58;9.73;;;19.20;99.90;;;;;;5029643;28;46055;-67
2022/07/30 06:05:57;;;;;;;20.08;10.13;;;19.30;99.90;;;;;;5028098;28;45487;-67
2022/07/30 06:08:24;;;;;;;18.90;9.60;;;19.20;99.90;;;;;;5034212;27;45334;-66
2022/07/30 06:10:51;;;;;;;16.17;9.68;;;19.40;99.90;;;;;;5025877;28;45270;-66
2022/07/30 06:13:19;;;;;;;23.23;10.38;;;19.30;99.90;;;;;;5039190;28;46625;-67
2022/07/30 06:15:46;;;;;;;19.20;9.77;;;19.30;99.90;;;;;;5028275;28;45320;-67
2022/07/30 06:18:12;;;;;;;22.70;11.18;;;19.40;99.90;;;;;;5039064;28;45327;-67
2022/07/30 06:20:39;;;;;;;18.17;9.95;;;19.40;99.90;;;;;;5041193;28;45691;-68
2022/07/30 06:23:06;;;;;;;18.90;11.40;;;19.70;99.90;;;;;;5039378;27;46600;-67
2022/07/30 06:25:32;;;;;;;24.65;9.65;;;19.70;99.90;;;;;;5039038;27;46642;-67
2022/07/30 06:27:59;;;;;;;17.55;8.32;;;19.70;99.90;;;;;;5040993;28;45509;-67
2022/07/30 06:30:28;;;;;;;20.00;10.57;;;19.80;99.90;;;;;;5041245;28;45293;-67
2022/07/30 06:32:55;;;;;;;20.48;9.73;;;19.80;99.90;;;;;;5039664;28;46332;-67
2022/07/30 06:35:22;;;;;;;27.85;11.25;;;19.70;99.90;;;;;;5040553;28;46118;-67
2022/07/30 06:37:49;;;;;;;21.58;9.38;;;19.70;99.90;;;;;;5040601;28;45349;-68
2022/07/30 06:40:15;;;;;;;20.85;8.88;;;19.70;99.90;;;;;;5041107;28;45550;-67
2022/07/30 06:42:42;;;;;;;13.27;7.47;;;19.70;99.90;;;;;;5031834;28;47504;-67
2022/07/30 06:45:10;;;;;;;23.63;8.30;;;19.60;99.90;;;;;;5040268;28;45334;-68
2022/07/30 06:47:38;;;;;;;18.38;9.23;;;19.70;99.90;;;;;;5041109;28;45554;-67
2022/07/30 06:50:06;;;;;;;15.98;7.95;;;19.80;99.90;;;;;;5039153;28;45347;-67
2022/07/30 06:52:33;;;;;;;17.90;8.48;;;19.90;99.90;;;;;;5039398;28;46549;-67
2022/07/30 06:55:00;;;;;;;17.52;8.43;;;19.90;99.90;;;;;;5052295;28;45266;-67
2022/07/30 06:57:26;;;;;;;18.10;8.05;;;20.00;99.90;;;;;;5036400;28;45359;-67
2022/07/30 06:59:53;;;;;;;19.63;7.82;;;20.10;99.90;;;;;;5040890;28;45229;-67
2022/07/30 07:02:20;;;;;;;14.43;7.40;;;20.00;99.90;;;;;;5038925;27;46640;-67
2022/07/30 07:04:48;;;;;;;15.30;7.45;;;20.00;99.90;;;;;;5040108;28;45323;-67
2022/07/30 07:07:15;;;;;;;17.55;7.50;;;19.90;99.90;;;;;;5039200;28;45420;-66
2022/07/30 07:09:42;;;;;;;16.38;7.18;;;20.00;99.90;;;;;;5039738;28;45594;-67
2022/07/30 07:12:09;;;;;;;14.93;7.28;;;20.10;99.90;;;;;;5040101;28;46694;-67
2022/07/30 07:14:35;;;;;;;18.83;7.38;;;20.10;99.60;;;;;;5042453;28;45522;-66
2022/07/30 07:17:03;;;;;;;19.15;8.23;;;20.10;99.90;;;;;;5038170;28;45435;-67
2022/07/30 07:19:29;;;;;;;13.30;6.78;;;20.10;99.90;;;;;;5037714;27;46769;-67
2022/07/30 07:21:58;;;;;;;17.70;8.15;;;20.30;99.90;;;;;;5037086;28;47650;-67
2022/07/30 07:24:25;;;;;;;16.45;7.07;;;20.20;99.80;;;;;;5037114;28;45425;-67
2022/07/30 07:26:51;;;;;;;18.23;7.50;;;20.30;99.90;;;;;;5037575;28;45345;-67
2022/07/30 07:29:18;;;;;;;15.70;8.45;;;20.20;99.90;;;;;;5037652;28;45273;-67
2022/07/30 07:31:45;;;;;;;16.85;7.25;;;20.20;99.70;;;;;;5037586;28;46449;-67
2022/07/30 07:34:12;;;;;;;19.20;8.55;;;20.30;99.60;;;;;;5035878;28;45464;-66
2022/07/30 07:36:38;;;;;;;14.95;6.60;;;20.20;99.90;;;;;;5038333;28;45529;-67
2022/07/30 07:39:09;;;;;;;18.98;7.20;;;20.30;99.80;;;;;;5037985;28;45647;-68
2022/07/30 07:41:37;;;;;;;14.63;7.10;;;20.30;99.10;;;;;;5037465;28;45678;-67
2022/07/30 07:44:04;;;;;;;16.17;6.68;;;20.30;98.80;;;;;;5035667;28;45647;-67
2022/07/30 07:46:31;;;;;;;18.27;6.93;;;20.30;99.10;;;;;;5030971;27;45503;-67
2022/07/30 07:48:58;;;;;;;14.05;6.55;;;20.40;99.00;;;;;;5037806;28;45360;-67
2022/07/30 07:51:25;;;;;;;13.00;7.70;;;20.60;98.50;;;;;;5030241;27;46994;-67
2022/07/30 07:53:52;;;;;;;11.23;6.03;;;20.60;98.10;;;;;;5037173;27;45327;-67
2022/07/30 07:56:20;;;;;;;16.50;6.93;;;20.70;98.00;;;;;;5036936;28;45689;-66
2022/07/30 07:58:47;;;;;;;10.95;7.65;;;20.70;97.70;;;;;;5037210;27;45299;-67
2022/07/30 08:01:14;;;;;;;14.60;7.20;;;20.70;97.60;;;;;;5033555;28;45535;-67
2022/07/30 08:03:41;;;;;;;13.20;7.40;;;20.70;97.80;;;;;;5034976;27;45395;-67
2022/07/30 08:06:08;;;;;;;14.82;6.80;;;20.80;97.80;;;;;;5032998;28;45592;-67
2022/07/30 08:08:35;;;;;;;9.30;5.93;;;20.80;97.10;;;;;;5037223;28;45410;-67
2022/07/30 08:11:02;;;;;;;9.73;5.80;;;20.80;97.40;;;;;;5037614;27;47570;-67
2022/07/30 08:13:31;;;;;;;14.13;6.90;;;20.90;97.10;;;;;;5035699;28;45406;-68
2022/07/30 08:15:58;;;;;;;12.90;6.40;;;20.90;96.20;;;;;;5034579;27;45462;-67
2022/07/30 08:18:25;;;;;;;11.68;6.38;;;20.90;95.60;;;;;;5040364;27;45531;-67
2022/07/30 08:20:52;;;;;;;14.80;6.28;;;20.70;96.20;;;;;;5073632;27;46319;-67
2022/07/30 08:23:21;;;;;;;10.55;6.40;;;20.80;96.00;;;;;;5056102;27;45388;-67
2022/07/30 08:25:48;;;;;;;10.63;5.43;;;20.90;95.70;;;;;;5036101;27;45452;-67
2022/07/30 08:28:14;;;;;;;14.57;5.40;;;20.90;95.50;;;;;;5036990;28;45710;-66
2022/07/30 08:30:43;;;;;;;12.38;5.10;;;21.00;95.10;;;;;;5036884;28;45866;-67
2022/07/30 08:33:10;;;;;;;12.15;5.82;;;21.10;94.80;;;;;;5035736;28;45283;-68
2022/07/30 08:35:36;;;;;;;13.30;5.03;;;21.10;93.90;;;;;;5037143;27;45524;-67
2022/07/30 08:38:03;;;;;;;12.73;4.80;;;20.80;92.90;;;;;;5035600;27;45416;-68
2022/07/30 08:40:33;;;;;;;8.93;4.55;;;20.70;93.10;;;;;;5033737;28;47244;-67
2022/07/30 08:43:01;;;;;;;12.07;4.78;;;20.90;92.80;;;;;;5037129;28;45318;-67
2022/07/30 08:45:30;;;;;;;10.90;4.70;;;21.10;92.50;;;;;;5035436;28;45572;-67
2022/07/30 08:48:00;;;;;;;13.00;4.65;;;20.90;91.30;;;;;;5035527;27;45451;-68
2022/07/30 08:50:28;;;;;;;10.63;5.35;;;20.80;92.80;;;;;;5036963;28;47129;-68
2022/07/30 08:52:56;;;;;;;16.77;6.38;;;21.00;93.30;;;;;;5036343;28;45407;-67
2022/07/30 08:55:23;;;;;;;13.43;4.72;;;21.00;92.50;;;;;;5037756;28;45491;-68
2022/07/30 08:57:50;;;;;;;8.43;4.93;;;21.00;92.60;;;;;;5040453;28;45596;-68
2022/07/30 09:00:18;;;;;;;12.07;5.22;;;21.00;92.00;;;;;;5035536;28;45344;-68
2022/07/30 09:02:45;;;;;;;7.65;4.05;;;21.20;91.90;;;;;;5036123;28;45602;-67
2022/07/30 09:05:14;;;;;;;12.25;4.95;;;21.20;90.90;;;;;;5037113;28;45545;-67
2022/07/30 09:07:41;;;;;;;11.77;4.75;;;21.10;91.20;;;;;;5040087;28;45212;-67
2022/07/30 09:10:09;;;;;;;11.82;5.10;;;21.10;91.40;;;;;;5037939;27;46283;-68
2022/07/30 09:12:39;;;;;;;8.05;4.78;;;21.20;91.80;;;;;;5034842;28;46080;-67
2022/07/30 09:15:09;;;;;;;13.63;4.97;;;21.30;91.60;;;;;;5036682;28;45502;-68
2022/07/30 09:17:51;;;;;;;14.18;5.93;;;21.40;91.50;;;;;;5039692;28;45358;-67
2022/07/30 09:20:20;;;;;;;11.93;4.88;;;21.60;91.70;;;;;;5037501;28;45372;-67
2022/07/30 09:22:49;;;;;;;11.70;4.65;;;21.50;90.70;;;;;;5038996;27;45319;-67
2022/07/30 09:25:32;;;;;;;9.80;4.95;;;21.40;90.80;;;;;;5038545;28;45593;-67
2022/07/30 09:27:59;;;;;;;14.32;4.97;;;21.40;91.00;;;;;;5035037;27;45538;-68
2022/07/30 09:30:25;;;;;;;6.05;3.63;;;21.50;89.30;;;;;;5036832;27;46314;-67
2022/07/30 09:32:55;;;;;;;10.23;3.55;;;21.40;90.40;;;;;;5037927;28;45462;-66
2022/07/30 09:35:23;;;;;;;6.47;3.15;;;21.40;90.00;;;;;;5060577;27;45451;-67
2022/07/30 09:37:59;;;;;;;4.80;3.17;;;21.40;88.50;;;;;;5038068;28;45453;-67
2022/07/30 09:40:26;;;;;;;8.48;3.65;;;21.50;87.10;;;;;;5038502;28;46586;-67
2022/07/30 09:43:03;;;;;;;7.40;3.00;;;21.40;85.30;;;;;;5053105;27;45399;-67
2022/07/30 09:45:31;;;;;;;10.95;3.25;;;21.40;89.50;;;;;;5032264;28;45417;-67
2022/07/30 09:47:58;;;;;;;8.57;3.00;;;21.50;86.80;;;;;;5035447;28;45426;-67
2022/07/30 09:50:26;;;;;;;11.20;2.90;;;21.60;84.50;;;;;;5035312;28;46598;-68
2022/07/30 09:52:54;;;;;;;11.65;3.92;;;21.00;83.40;;;;;;5037801;28;45484;-67
2022/07/30 09:55:32;;;;;;;7.07;3.40;;;20.80;84.10;;;;;;5036655;28;45406;-67
2022/07/30 09:58:01;;;;;;;12.20;3.03;;;21.10;83.90;;;;;;5038255;28;45408;-67
2022/07/30 10:00:30;;;;;;;13.95;3.67;;;21.30;80.60;;;;;;5038078;27;47056;-67
2022/07/30 10:02:59;;;;;;;5.97;2.85;;;21.10;80.80;;;;;;5037509;28;45331;-67
2022/07/30 10:05:27;;;;;;;4.93;2.58;;;20.90;80.80;;;;;;5037991;27;45594;-68
2022/07/30 10:07:56;;;;;;;8.32;2.92;;;20.90;81.50;;;;;;5037188;28;45473;-67
2022/07/30 10:10:25;;;;;;;6.38;2.83;;;20.90;82.40;;;;;;5032284;28;46324;-67
2022/07/30 10:12:54;;;;;;;8.70;2.97;;;20.70;81.70;;;;;;5040348;28;45510;-68
2022/07/30 10:15:21;;;;;;;9.43;2.70;;;21.00;79.50;;;;;;5037690;28;45463;-67
2022/07/30 10:17:49;;;;;;;10.38;2.90;;;21.40;78.40;;;;;;5036836;28;45461;-68
2022/07/30 10:20:16;;;;;;;7.13;2.42;;;21.20;76.10;;;;;;5024490;27;45516;-68
2022/07/30 10:22:45;;;;;;;5.50;2.33;;;21.40;79.10;;;;;;5035544;28;45404;-67
2022/07/30 10:25:12;;;;;;;5.43;2.63;;;21.50;74.20;;;;;;5034542;27;45336;-66
2022/07/30 10:27:39;;;;;;;5.00;1.77;;;21.40;73.30;;;;;;5033334;28;45380;-67
2022/07/30 10:30:07;;;;;;;6.28;2.22;;;21.40;71.50;;;;;;5025197;28;46486;-67
2022/07/30 10:32:38;;;;;;;6.22;2.20;;;21.40;69.40;;;;;;5039817;28;45386;-67
2022/07/30 10:35:06;;;;;;;7.72;2.55;;;21.20;72.90;;;;;;5039908;28;45327;-67
2022/07/30 10:37:34;;;;;;;8.23;2.72;;;21.30;74.70;;;;;;5032569;28;45518;-68
2022/07/30 10:40:07;;;;;;;13.40;3.03;;;21.30;74.10;;;;;;5040196;28;45380;-67
2022/07/30 10:42:54;;;;;;;5.35;3.15;;;21.00;76.20;;;;;;5025210;27;45408;-67
2022/07/30 10:45:30;;;;;;;9.55;2.72;;;21.20;76.30;;;;;;5030127;28;45376;-68
2022/07/30 10:47:57;;;;;;;8.40;2.50;;;21.80;71.80;;;;;;5041326;27;45361;-67
2022/07/30 10:50:26;;;;;;;6.03;2.72;;;22.00;69.30;;;;;;5037557;27;46433;-67
2022/07/30 10:52:55;;;;;;;4.82;2.30;;;21.80;71.00;;;;;;5030856;27;45508;-67
2022/07/30 10:55:25;;;;;;;4.65;2.05;;;21.50;71.90;;;;;;5031449;28;45375;-67
2022/07/30 10:57:59;;;;;;;6.68;2.60;;;21.80;69.60;;;;;;5040515;28;45425;-68
2022/07/30 11:00:27;;;;;;;5.45;1.33;;;21.90;72.80;;;;;;5039912;28;45442;-67
2022/07/30 11:03:20;;;;;;;8.52;1.83;;;22.10;68.90;;;;;;5037853;28;45451;-67
2022/07/30 11:05:48;;;;;;;3.65;1.55;;;22.20;66.50;;;;;;5040538;27;45384;-67
2022/07/30 11:08:37;;;;;;;4.57;1.95;;;22.20;68.90;;;;;;5026129;28;45321;-68
2022/07/30 11:11:45;;;;;;;5.53;2.67;;;22.30;67.00;;;;;;5034453;28;48384;-67
2022/07/30 11:14:12;;;;;;;5.78;2.17;;;22.30;65.90;;;;;;5043277;28;45272;-67
2022/07/30 11:16:58;;;;;;;4.10;1.98;;;22.30;68.50;;;;;;5042483;28;45584;-65
2022/07/30 11:19:26;;;;;;;7.50;2.20;;;22.40;69.30;;;;;;5040205;27;45400;-67
2022/07/30 11:22:23;;;;;;;3.70;2.08;;;22.40;72.40;;;;;;5038852;28;46392;-67
2022/07/30 11:24:50;;;;;;;6.13;2.03;;;22.40;67.90;;;;;;5036454;28;45449;-68
2022/07/30 11:27:40;;;;;;;7.95;2.92;;;22.40;68.80;;;;;;5036438;28;45392;-67
2022/07/30 11:30:34;;;;;;;6.25;2.42;;;22.40;64.80;;;;;;5037627;28;45506;-67
2022/07/30 11:33:22;;;;;;;6.75;2.35;;;22.40;63.60;;;;;;5030689;28;45436;-68
2022/07/30 11:36:07;;;;;;;5.35;2.30;;;22.50;67.60;;;;;;5037350;28;45373;-67
2022/07/30 11:38:54;;;;;;;16.58;2.55;;;22.60;67.40;;;;;;5038257;28;45429;-67
2022/07/30 11:41:21;;;;;;;5.88;2.30;;;22.60;67.00;;;;;;5035499;27;46318;-67
2022/07/30 11:44:25;;;;;;;6.40;2.55;;;22.70;65.10;;;;;;5035855;28;48046;-67
2022/07/30 11:46:52;;;;;;;4.05;2.10;;;22.70;67.60;;;;;;5052722;28;45306;-68
2022/07/30 11:49:20;;;;;;;5.22;2.30;;;22.70;65.20;;;;;;5046023;28;45427;-67
2022/07/30 11:51:48;;;;;;;5.53;2.00;;;22.70;63.60;;;;;;5031430;28;45584;-67
2022/07/30 11:54:15;;;;;;;4.10;2.45;;;22.80;61.90;;;;;;5036685;28;47491;-67
2022/07/30 11:56:48;;;;;;;8.13;1.70;;;22.90;60.10;;;;;;5039694;28;45360;-67
2022/07/30 11:59:16;;;;;;;5.05;1.80;;;22.80;61.30;;;;;;5026683;28;45223;-67
2022/07/30 12:01:43;;;;;;;4.78;2.47;;;23.00;60.70;;;;;;5037088;28;45550;-67
2022/07/30 12:04:10;;;;;;;7.63;1.83;;;23.10;60.40;;;;;;5038901;28;48215;-67
2022/07/30 12:06:44;;;;;;;3.05;1.25;;;23.00;57.20;;;;;;5039531;28;45576;-67
2022/07/30 12:09:11;;;;;;;3.63;1.65;;;23.50;57.70;;;;;;5032860;27;45334;-68
2022/07/30 12:11:38;;;;;;;3.53;1.73;;;23.60;57.50;;;;;;5043270;27;45529;-67
2022/07/30 12:14:05;;;;;;;2.67;1.30;;;23.30;58.00;;;;;;5038797;27;47311;-68
2022/07/30 12:16:34;;;;;;;4.50;1.55;;;23.00;59.60;;;;;;5040609;27;45453;-67
2022/07/30 12:19:02;;;;;;;5.07;1.85;;;22.70;61.40;;;;;;5036528;27;45396;-68
2022/07/30 12:21:29;;;;;;;1.85;1.30;;;22.40;63.20;;;;;;5036928;27;45443;-67
2022/07/30 12:23:57;;;;;;;4.10;1.40;;;22.40;68.70;;;;;;5036486;27;47630;-67
2022/07/30 12:26:26;;;;;;;2.42;1.27;;;22.40;65.90;;;;;;5035861;28;46485;-67
2022/07/30 12:28:53;;;;;;;1.77;1.20;;;22.80;62.40;;;;;;5035005;27;45376;-67
2022/07/30 12:31:20;;;;;;;3.92;1.13;;;23.00;62.10;;;;;;5040412;27;45435;-67
2022/07/30 12:33:48;;;;;;;3.83;1.20;;;23.00;61.90;;;;;;5035528;27;47185;-68
2022/07/30 12:36:26;;;;;;;5.95;1.05;;;22.90;63.40;;;;;;5033512;27;45488;-67
2022/07/30 12:38:53;;;;;;;2.88;1.40;;;22.90;62.90;;;;;;5035298;28;45578;-68
2022/07/30 12:41:20;;;;;;;2.30;1.20;;;23.00;62.70;;;;;;5030397;27;45475;-68
2022/07/30 12:43:48;;;;;;;3.00;1.15;;;23.20;62.90;;;;;;5036051;27;48515;-68
2022/07/30 12:46:17;;;;;;;4.20;1.42;;;23.20;61.80;;;;;;5059043;28;45378;-68
2022/07/30 12:48:53;;;;;;;4.03;1.10;;;23.20;62.50;;;;;;5059771;28;45433;-67
2022/07/30 12:51:22;;;;;;;3.65;1.58;;;23.20;62.90;;;;;;5059135;28;45458;-67
2022/07/30 12:53:50;;;;;;;4.68;1.38;;;23.20;62.80;;;;;;5057788;28;45572;-67